createdAt,value
2017-10-19T00:00:43.826Z,40.12
2017-10-19T00:01:49.826Z,37.92
2017-10-19T00:02:56.274Z,43.05
2017-10-19T00:04:01.948Z,41.03
2017-10-19T00:05:09.735Z,41.10
2017-10-19T00:06:15.858Z,42.83
2017-10-19T00:07:21.992Z,43.30
2017-10-19T00:08:27.938Z,45.40
2017-10-19T00:09:34.118Z,43.35
2017-10-19T00:10:40.254Z,45.88
2017-10-19T00:11:46.522Z,46.45
2017-10-19T00:12:52.895Z,43.72
2017-10-19T00:14:01.790Z,43.97
2017-10-19T00:15:09.315Z,44.78
2017-10-19T00:16:16.440Z,42.60
2017-10-19T00:17:22.718Z,42.67
2017-10-19T00:18:30.778Z,41.05
2017-10-19T00:19:36.967Z,43.85
2017-10-19T00:20:43.060Z,43.97
2017-10-19T00:21:49.008Z,36.92
2017-10-19T00:22:55.181Z,39.70
2017-10-19T00:24:01.268Z,42.03
2017-10-19T00:25:07.443Z,41.78
2017-10-19T00:26:13.557Z,43.70
2017-10-19T00:27:20.461Z,42.60
2017-10-19T00:28:26.616Z,43.38
2017-10-19T00:29:32.735Z,47.70
2017-10-19T00:30:38.660Z,40.65
2017-10-19T00:31:44.746Z,41.63
2017-10-19T00:32:50.499Z,40.38
2017-10-19T00:33:56.800Z,39.08
2017-10-19T00:35:02.922Z,44.45
2017-10-19T00:36:08.843Z,46.20
2017-10-19T00:37:14.944Z,38.08
2017-10-19T00:38:20.661Z,39.53
2017-10-19T00:39:26.433Z,43.90
2017-10-19T00:40:32.536Z,40.90
2017-10-19T00:41:38.635Z,43.80
2017-10-19T00:42:44.598Z,43.63
2017-10-19T00:43:50.690Z,41.47
2017-10-19T00:44:56.881Z,41.70
2017-10-19T00:46:03.013Z,45.12
2017-10-19T00:47:09.171Z,44.10
2017-10-19T00:48:18.913Z,42.70
2017-10-19T00:49:25.121Z,46.35
2017-10-19T00:50:31.236Z,43.15
2017-10-19T00:51:37.572Z,47.30
2017-10-19T00:52:43.654Z,46.80
2017-10-19T00:53:49.376Z,48.58
2017-10-19T00:54:55.446Z,48.45
2017-10-19T00:56:01.196Z,55.50
2017-10-19T00:57:06.759Z,56.47
2017-10-19T00:58:12.073Z,44.63
2017-10-19T00:59:17.627Z,45.08
2017-10-19T01:00:22.825Z,49.28
2017-10-19T01:01:27.340Z,44.45
2017-10-19T01:02:33.078Z,49.15
2017-10-19T01:03:39.163Z,50.72
2017-10-19T01:04:45.256Z,44.90
2017-10-19T01:05:51.368Z,44.17
2017-10-19T01:06:57.450Z,43.05
2017-10-19T01:08:03.578Z,41.45
2017-10-19T01:09:09.688Z,40.65
2017-10-19T01:10:15.869Z,42.55
2017-10-19T01:11:27.033Z,44.83
2017-10-19T01:12:32.789Z,42.20
2017-10-19T01:13:38.348Z,40.42
2017-10-19T01:14:44.042Z,38.22
2017-10-19T01:15:50.652Z,38.90
2017-10-19T01:16:56.543Z,38.85
2017-10-19T01:18:03.141Z,36.78
2017-10-19T01:19:08.522Z,39.95
2017-10-19T01:20:13.880Z,44.83
2017-10-19T01:21:19.281Z,47.05
2017-10-19T01:22:24.655Z,46.35
2017-10-19T01:23:30.117Z,46.47
2017-10-19T01:24:35.184Z,46.30
2017-10-19T01:25:40.574Z,47.95
2017-10-19T01:26:45.928Z,44.80
2017-10-19T01:27:51.649Z,45.42
2017-10-19T01:28:57.074Z,49.45
2017-10-19T01:30:02.467Z,47.20
2017-10-19T01:31:07.665Z,40.92
2017-10-19T01:32:13.360Z,42.67
2017-10-19T01:33:19.065Z,39.58
2017-10-19T01:34:24.402Z,40.85
2017-10-19T01:35:30.123Z,38.05
2017-10-19T01:36:35.470Z,38.03
2017-10-19T01:37:41.302Z,42.53
2017-10-19T01:38:46.657Z,44.28
2017-10-19T01:39:52.226Z,42.40
2017-10-19T01:40:57.618Z,47.80
2017-10-19T01:42:03.961Z,49.03
2017-10-19T01:43:09.855Z,43.83
2017-10-19T01:44:15.252Z,45.58
2017-10-19T01:45:20.637Z,45.80
2017-10-19T01:46:26.381Z,42.45
2017-10-19T01:47:31.867Z,44.95
2017-10-19T01:48:37.567Z,43.60
2017-10-19T01:50:00.777Z,43.80
2017-10-19T01:51:06.172Z,43.97
2017-10-19T01:52:12.191Z,39.67
2017-10-19T01:53:18.307Z,42.45
2017-10-19T01:54:24.411Z,45.60
2017-10-19T01:55:30.150Z,42.85
2017-10-19T01:56:36.257Z,47.72
2017-10-19T01:57:44.193Z,47.85
2017-10-19T01:58:49.911Z,40.17
2017-10-19T01:59:55.965Z,40.72
2017-10-19T02:01:01.873Z,41.30
2017-10-19T02:02:08.499Z,41.90
2017-10-19T02:03:22.879Z,40.25
2017-10-19T02:04:32.923Z,42.47
2017-10-19T02:05:39.071Z,43.92
2017-10-19T02:06:44.854Z,40.80
2017-10-19T02:07:50.616Z,43.90
2017-10-19T02:08:56.334Z,44.97
2017-10-19T02:10:02.423Z,42.62
2017-10-19T02:11:08.561Z,43.15
2017-10-19T02:12:14.633Z,45.65
2017-10-19T02:13:20.774Z,46.58
2017-10-19T02:14:26.528Z,41.67
2017-10-19T02:15:31.922Z,41.80
2017-10-19T02:16:38.017Z,40.30
2017-10-19T02:17:44.104Z,40.00
2017-10-19T02:18:50.199Z,40.30
2017-10-19T02:19:55.974Z,36.45
2017-10-19T02:21:02.115Z,40.22
2017-10-19T02:22:08.546Z,41.72
2017-10-19T02:23:14.659Z,41.00
2017-10-19T02:24:20.660Z,46.28
2017-10-19T02:25:26.816Z,43.90
2017-10-19T02:26:33.002Z,42.35
2017-10-19T02:27:39.135Z,46.55
2017-10-19T02:28:45.213Z,45.53
2017-10-19T02:31:33.848Z,38.90
2017-10-19T02:32:39.947Z,40.17
2017-10-19T02:33:46.056Z,42.58
2017-10-19T02:34:55.437Z,43.58
2017-10-19T02:36:01.586Z,43.40
2017-10-19T02:37:07.699Z,45.78
2017-10-19T02:38:13.627Z,46.88
2017-10-19T02:39:19.763Z,45.15
2017-10-19T02:40:25.913Z,46.45
2017-10-19T02:41:32.029Z,44.20
2017-10-19T02:42:38.191Z,46.95
2017-10-19T02:43:44.127Z,43.22
2017-10-19T02:44:50.240Z,44.03
2017-10-19T02:45:56.379Z,45.03
2017-10-19T02:47:02.483Z,43.38
2017-10-19T02:48:08.634Z,42.60
2017-10-19T02:49:14.756Z,42.05
2017-10-19T02:50:20.896Z,42.08
2017-10-19T02:51:27.024Z,43.25
2017-10-19T02:52:32.821Z,44.58
2017-10-19T02:53:38.948Z,44.00
2017-10-19T02:54:44.695Z,48.35
2017-10-19T02:55:50.475Z,52.35
2017-10-19T02:56:59.391Z,49.33
2017-10-19T02:58:05.304Z,54.45
2017-10-19T02:59:15.770Z,55.08
2017-10-19T03:00:21.557Z,51.45
2017-10-19T03:01:27.487Z,53.25
2017-10-19T03:02:33.238Z,48.28
2017-10-19T03:03:39.341Z,50.25
2017-10-19T03:04:45.627Z,52.10
2017-10-19T03:05:51.795Z,48.92
2017-10-19T03:06:57.667Z,48.38
2017-10-19T03:08:03.602Z,49.42
2017-10-19T03:09:08.982Z,50.28
2017-10-19T03:10:15.563Z,49.72
2017-10-19T03:11:21.680Z,56.00
2017-10-19T03:12:27.809Z,58.60
2017-10-19T03:13:33.589Z,55.55
2017-10-19T03:14:39.671Z,59.40
2017-10-19T03:15:45.788Z,56.47
2017-10-19T03:16:51.872Z,57.15
2017-10-19T03:17:58.112Z,49.92
2017-10-19T03:19:04.194Z,50.92
2017-10-19T03:20:10.318Z,52.03
2017-10-19T03:21:16.464Z,49.53
2017-10-19T03:22:22.583Z,49.47
2017-10-19T03:23:28.707Z,47.33
2017-10-19T03:24:34.807Z,49.55
2017-10-19T03:25:40.786Z,47.10
2017-10-19T03:26:46.902Z,44.42
2017-10-19T03:27:52.986Z,43.83
2017-10-19T03:28:59.079Z,48.17
2017-10-19T03:30:05.178Z,47.42
2017-10-19T03:31:11.324Z,48.85
2017-10-19T03:32:17.404Z,49.47
2017-10-19T03:33:23.503Z,48.47
2017-10-19T03:34:29.278Z,46.15
2017-10-19T03:35:35.029Z,49.25
2017-10-19T03:36:41.673Z,41.28
2017-10-19T03:44:40.081Z,45.75
2017-10-19T03:46:05.165Z,44.03
2017-10-19T03:47:25.267Z,42.17
2017-10-19T03:48:48.143Z,40.63
2017-10-19T03:50:11.325Z,40.85
2017-10-19T03:51:21.717Z,40.67
2017-10-19T03:52:28.722Z,41.97
2017-10-19T03:53:36.268Z,40.33
2017-10-19T03:54:42.403Z,42.03
2017-10-19T03:55:48.614Z,42.30
2017-10-19T03:56:55.258Z,43.35
2017-10-19T03:58:01.427Z,44.20
2017-10-19T03:59:07.701Z,44.00
2017-10-19T04:00:13.332Z,44.60
2017-10-19T04:01:22.715Z,47.10
2017-10-19T04:02:28.930Z,41.35
2017-10-19T04:03:35.117Z,42.00
2017-10-19T04:04:47.442Z,42.67
2017-10-19T04:05:58.664Z,41.72
2017-10-19T04:07:04.859Z,41.00
2017-10-19T04:08:10.967Z,40.92
2017-10-19T04:09:17.756Z,42.70
2017-10-19T04:10:23.881Z,42.22
2017-10-19T04:11:30.035Z,40.95
2017-10-19T04:12:36.271Z,45.40
2017-10-19T04:13:42.399Z,42.72
2017-10-19T04:14:48.334Z,44.80
2017-10-19T04:15:54.452Z,43.63
2017-10-19T04:17:00.636Z,41.97
2017-10-19T04:18:06.722Z,44.47
2017-10-19T04:19:12.922Z,43.45
2017-10-19T04:20:19.082Z,42.67
2017-10-19T04:21:25.263Z,40.50
2017-10-19T04:22:31.461Z,43.42
2017-10-19T04:23:38.898Z,44.33
2017-10-19T04:24:46.711Z,45.12
2017-10-19T04:25:54.609Z,43.38
2017-10-19T04:27:04.443Z,40.42
2017-10-19T04:28:10.834Z,41.72
2017-10-19T04:29:16.943Z,40.10
2017-10-19T04:30:24.164Z,41.55
2017-10-19T04:31:34.181Z,40.17
2017-10-19T04:32:46.477Z,38.20
2017-10-19T04:33:58.995Z,36.13
2017-10-19T04:35:11.904Z,37.92
2017-10-19T04:36:19.140Z,37.83
2017-10-19T04:37:30.382Z,39.40
2017-10-19T04:38:39.692Z,38.50
2017-10-19T04:39:52.488Z,37.53
2017-10-19T04:41:14.043Z,35.80
2017-10-19T04:42:28.140Z,39.75
2017-10-19T04:43:38.840Z,38.75
2017-10-19T04:44:52.877Z,42.42
2017-10-19T04:46:01.899Z,40.03
2017-10-19T04:47:25.222Z,41.22
2017-10-19T04:51:10.080Z,35.35
2017-10-19T04:52:20.669Z,37.85
2017-10-19T04:53:27.567Z,37.42
2017-10-19T04:54:36.023Z,38.33
2017-10-19T04:55:43.393Z,37.50
2017-10-19T04:56:51.022Z,38.10
2017-10-19T05:03:30.306Z,35.65
2017-10-19T05:04:39.762Z,36.30
2017-10-19T05:05:56.236Z,39.72
2017-10-19T05:07:06.623Z,39.50
2017-10-19T05:14:09.412Z,39.75
2017-10-19T05:15:29.436Z,35.75
2017-10-19T05:16:47.494Z,41.90
2017-10-19T05:21:44.898Z,38.72
2017-10-19T05:22:58.497Z,39.22
2017-10-19T05:24:45.923Z,39.30
2017-10-19T05:26:08.226Z,36.75
2017-10-19T06:17:17.297Z,37.40
2017-10-19T06:21:00.324Z,47.78
2017-10-19T06:22:09.382Z,51.85
2017-10-19T06:23:20.423Z,49.38
2017-10-19T06:24:39.888Z,51.85
2017-10-19T06:25:49.087Z,51.83
2017-10-19T06:26:58.165Z,49.55
2017-10-19T06:28:08.499Z,50.10
2017-10-19T06:29:18.367Z,49.25
2017-10-19T06:30:27.427Z,50.25
2017-10-19T06:31:33.647Z,45.47
2017-10-19T06:32:45.299Z,44.92
2017-10-19T06:33:53.474Z,46.83
2017-10-19T06:35:00.619Z,46.37
2017-10-19T06:36:10.265Z,49.00
2017-10-19T06:37:17.918Z,47.22
2017-10-19T06:38:24.310Z,49.00
2017-10-19T06:39:31.670Z,45.45
2017-10-19T06:40:39.489Z,41.17
2017-10-19T06:41:46.403Z,40.95
2017-10-19T06:42:52.705Z,42.10
2017-10-19T06:44:01.088Z,41.97
2017-10-19T06:45:08.726Z,39.30
2017-10-19T06:46:15.786Z,42.62
2017-10-19T06:47:23.337Z,45.28
2017-10-19T06:48:31.176Z,41.78
2017-10-19T06:49:37.351Z,42.15
2017-10-19T06:50:44.690Z,45.60
2017-10-19T06:51:51.952Z,42.05
2017-10-19T06:52:58.944Z,44.60
2017-10-19T06:54:06.277Z,44.70
2017-10-19T06:55:13.369Z,42.25
2017-10-19T06:56:20.252Z,41.80
2017-10-19T06:57:27.359Z,42.83
2017-10-19T06:58:33.994Z,42.55
2017-10-19T06:59:40.936Z,43.05
2017-10-19T07:00:47.316Z,42.58
2017-10-19T07:01:53.765Z,43.90
2017-10-19T07:03:00.073Z,43.55
2017-10-19T07:04:07.683Z,43.50
2017-10-19T07:05:14.057Z,42.15
2017-10-19T07:06:20.205Z,41.15
2017-10-19T07:07:26.525Z,42.62
2017-10-19T07:08:32.739Z,44.67
2017-10-19T07:09:39.260Z,39.30
2017-10-19T07:10:45.433Z,44.30
2017-10-19T07:11:51.657Z,46.10
2017-10-19T07:12:57.901Z,42.75
2017-10-19T07:14:04.133Z,46.00
2017-10-19T07:15:10.403Z,41.97
2017-10-19T07:16:16.554Z,41.42
2017-10-19T07:17:22.556Z,39.15
2017-10-19T07:18:28.910Z,40.63
2017-10-19T07:19:35.950Z,40.63
2017-10-19T07:20:42.368Z,38.22
2017-10-19T07:21:48.679Z,42.28
2017-10-19T07:22:54.895Z,43.42
2017-10-19T07:24:01.192Z,42.72
2017-10-19T07:25:07.412Z,51.97
2017-10-19T07:26:13.418Z,52.47
2017-10-19T07:27:19.852Z,52.05
2017-10-19T07:28:26.133Z,47.92
2017-10-19T07:29:32.321Z,51.88
2017-10-19T07:30:38.561Z,47.70
2017-10-19T07:31:44.871Z,47.08
2017-10-19T07:32:50.665Z,44.33
2017-10-19T07:33:56.565Z,44.50
2017-10-19T07:35:03.251Z,46.17
2017-10-19T07:36:09.680Z,44.30
2017-10-19T07:37:15.857Z,42.55
2017-10-19T07:38:22.159Z,45.78
2017-10-19T07:39:27.923Z,42.17
2017-10-19T07:40:34.193Z,42.25
2017-10-19T07:41:40.513Z,42.70
2017-10-19T07:42:46.763Z,43.97
2017-10-19T07:43:53.572Z,45.12
2017-10-19T07:44:59.795Z,41.75
2017-10-19T07:46:06.210Z,44.17
2017-10-19T07:47:12.425Z,43.05
2017-10-19T07:48:19.140Z,43.85
2017-10-19T07:49:25.565Z,42.55
2017-10-19T07:50:31.735Z,46.97
2017-10-19T07:51:38.075Z,45.17
2017-10-19T07:52:44.765Z,45.00
2017-10-19T07:53:50.999Z,41.88
2017-10-19T07:54:57.256Z,43.78
2017-10-19T07:56:03.644Z,41.15
2017-10-19T07:57:09.854Z,38.92
2017-10-19T07:58:16.975Z,40.55
2017-10-19T07:59:28.919Z,41.00
2017-10-19T08:00:36.151Z,42.40
2017-10-19T08:01:47.682Z,42.83
2017-10-19T08:03:08.840Z,39.28
2017-10-19T08:07:44.681Z,36.60
2017-10-19T08:09:10.446Z,34.85
2017-10-19T08:54:59.483Z,30.67
2017-10-19T08:56:35.088Z,28.60
2017-10-19T11:04:47.639Z,12.25
2017-10-19T11:06:21.375Z,12.07
2017-10-19T11:07:27.705Z,11.52
2017-10-19T11:09:09.206Z,11.27
2017-10-19T11:10:26.736Z,11.90
2017-10-19T11:11:45.236Z,11.95
2017-10-19T11:13:07.680Z,12.75
2017-10-19T11:14:21.550Z,11.12
2017-10-19T11:46:01.022Z,13.10
2017-10-19T11:47:08.049Z,11.70
2017-10-19T11:48:15.124Z,11.15
2017-10-19T11:49:22.341Z,11.95
2017-10-19T11:50:29.549Z,11.43
2017-10-19T11:51:36.752Z,11.70
2017-10-19T11:52:43.868Z,10.32
2017-10-19T11:53:50.907Z,11.95
2017-10-19T11:54:58.177Z,11.02
2017-10-19T11:56:05.302Z,10.45
2017-10-19T11:57:12.391Z,11.10
2017-10-19T11:58:19.743Z,11.10
2017-10-19T11:59:26.744Z,11.38
2017-10-19T12:00:33.838Z,9.70
2017-10-19T12:01:40.984Z,11.55
2017-10-19T12:02:48.163Z,10.45
2017-10-19T12:03:55.370Z,9.98
2017-10-19T12:05:04.229Z,10.25
2017-10-19T12:06:13.678Z,9.75
2017-10-19T12:07:20.871Z,10.27
2017-10-19T12:08:28.048Z,9.50
2017-10-19T12:09:35.273Z,10.00
2017-10-19T12:10:44.818Z,9.82
2017-10-19T12:11:51.829Z,9.35
2017-10-19T12:12:58.943Z,9.27
2017-10-19T12:14:06.172Z,9.13
2017-10-19T12:15:15.112Z,8.20
2017-10-19T12:16:22.052Z,7.82
2017-10-19T12:17:28.984Z,7.55
2017-10-19T12:18:36.081Z,6.72
2017-10-19T12:19:43.229Z,8.05
2017-10-19T12:20:50.365Z,6.43
2017-10-19T12:21:57.507Z,6.78
2017-10-19T12:23:04.505Z,6.07
2017-10-19T12:24:11.841Z,6.65
2017-10-19T12:25:18.963Z,6.40
2017-10-19T12:26:26.429Z,6.90
2017-10-19T12:27:34.910Z,6.60
2017-10-19T12:28:42.214Z,6.43
2017-10-19T12:29:49.147Z,6.47
2017-10-19T12:30:56.304Z,5.80
2017-10-19T12:32:03.854Z,5.95
2017-10-19T12:33:12.112Z,5.65
2017-10-19T12:34:20.726Z,6.50
2017-10-19T12:35:31.264Z,5.93
2017-10-19T12:36:38.560Z,5.10
2017-10-19T12:37:46.731Z,5.60
2017-10-19T12:38:56.653Z,5.53
2017-10-19T12:40:04.050Z,5.95
2017-10-19T12:41:11.690Z,5.30
2017-10-19T12:42:20.563Z,5.20
2017-10-19T12:43:28.303Z,5.57
2017-10-19T12:44:36.196Z,5.55
2017-10-19T12:45:46.600Z,5.65
2017-10-19T12:46:56.501Z,5.65
2017-10-19T12:48:04.140Z,7.07
2017-10-19T12:49:12.249Z,6.25
2017-10-19T12:50:19.091Z,5.07
2017-10-19T12:51:28.712Z,5.47
2017-10-19T12:52:36.510Z,6.25
2017-10-19T12:53:45.537Z,5.60
2017-10-19T12:54:53.368Z,5.03
2017-10-19T12:56:04.919Z,5.50
2017-10-19T12:57:12.174Z,5.90
2017-10-19T12:58:20.792Z,5.90
2017-10-19T12:59:27.573Z,5.43
2017-10-19T13:00:34.991Z,5.35
2017-10-19T13:01:41.210Z,5.97
2017-10-19T13:02:47.289Z,5.87
2017-10-19T13:03:55.366Z,5.03
2017-10-19T13:05:02.253Z,5.80
2017-10-19T13:07:26.070Z,6.60
2017-10-19T13:08:32.424Z,5.77
2017-10-19T13:09:38.921Z,6.00
2017-10-19T13:10:50.634Z,5.70
2017-10-19T13:11:57.899Z,5.37
2017-10-19T13:13:05.496Z,5.60
2017-10-19T13:14:14.161Z,5.57
2017-10-19T13:15:22.147Z,5.33
2017-10-19T13:16:29.685Z,5.23
2017-10-19T13:17:35.927Z,5.57
2017-10-19T13:18:42.383Z,5.07
2017-10-19T13:19:48.844Z,5.50
2017-10-19T13:20:55.614Z,4.87
2017-10-19T13:22:03.516Z,4.50
2017-10-19T13:23:11.367Z,5.17
2017-10-19T13:24:18.901Z,5.33
2017-10-19T13:25:26.917Z,5.37
2017-10-19T13:26:38.254Z,5.67
2017-10-19T13:27:44.074Z,5.47
2017-10-19T13:28:53.361Z,5.20
2017-10-19T13:30:00.140Z,5.20
2017-10-19T13:31:07.994Z,5.00
2017-10-19T13:32:14.517Z,5.77
2017-10-19T13:33:22.834Z,4.67
2017-10-19T13:34:31.017Z,4.90
2017-10-19T13:35:38.123Z,5.07
2017-10-19T13:36:48.338Z,5.30
2017-10-19T13:37:54.667Z,4.70
2017-10-19T13:39:00.764Z,4.90
2017-10-19T13:40:06.982Z,5.43
2017-10-19T13:41:13.020Z,4.97
2017-10-19T13:42:19.385Z,4.97
2017-10-19T13:43:28.992Z,4.93
2017-10-19T13:44:35.718Z,5.65
2017-10-19T13:45:42.036Z,5.17
2017-10-19T13:46:48.605Z,5.10
2017-10-19T13:47:55.654Z,4.70
2017-10-19T13:49:02.301Z,4.18
2017-10-19T13:50:08.400Z,5.30
2017-10-19T13:51:17.103Z,4.90
2017-10-19T13:52:23.314Z,4.25
2017-10-19T13:53:29.446Z,4.40
2017-10-19T13:54:36.571Z,4.80
2017-10-19T13:55:44.745Z,5.20
2017-10-19T13:56:51.371Z,5.20
2017-10-19T13:57:57.797Z,5.50
2017-10-19T13:59:03.729Z,4.90
2017-10-19T14:00:10.108Z,4.70
2017-10-19T14:01:16.171Z,4.50
2017-10-19T14:02:22.645Z,5.10
2017-10-19T14:03:29.046Z,4.80
2017-10-19T14:04:34.791Z,4.97
2017-10-19T14:05:40.921Z,4.50
2017-10-19T14:06:47.324Z,4.63
2017-10-19T14:07:53.598Z,5.10
2017-10-19T14:08:59.550Z,4.90
2017-10-19T14:10:05.818Z,4.90
2017-10-19T14:11:13.031Z,4.37
2017-10-19T14:12:20.055Z,5.00
2017-10-19T14:13:27.511Z,5.53
2017-10-19T14:14:34.887Z,5.10
2017-10-19T14:15:41.313Z,5.40
2017-10-19T14:16:47.370Z,4.40
2017-10-19T14:17:53.287Z,4.33
2017-10-19T14:19:01.505Z,5.10
2017-10-19T14:20:07.756Z,5.80
2017-10-19T14:21:14.380Z,4.47
2017-10-19T14:22:20.743Z,4.82
2017-10-19T14:23:27.665Z,5.30
2017-10-19T14:24:34.006Z,5.97
2017-10-19T14:25:40.072Z,5.50
2017-10-19T14:26:46.095Z,5.10
2017-10-19T14:27:52.143Z,4.73
2017-10-19T14:28:58.324Z,5.20
2017-10-19T14:30:05.576Z,5.40
2017-10-19T14:31:11.280Z,5.10
2017-10-19T14:32:18.230Z,5.57
2017-10-19T14:33:24.745Z,5.10
2017-10-19T14:34:30.938Z,5.63
2017-10-19T14:35:37.067Z,5.20
2017-10-19T14:36:43.146Z,5.30
2017-10-19T14:37:48.953Z,4.93
2017-10-19T14:38:54.917Z,5.17
2017-10-19T14:40:01.151Z,4.47
2017-10-19T14:41:07.081Z,5.43
2017-10-19T14:42:13.072Z,5.23
2017-10-19T14:43:20.409Z,4.93
2017-10-19T14:44:30.559Z,5.37
2017-10-19T14:45:36.818Z,4.63
2017-10-19T14:46:43.277Z,5.67
2017-10-19T14:47:50.057Z,5.23
2017-10-19T14:48:56.523Z,5.40
2017-10-19T14:50:02.213Z,4.40
2017-10-19T14:51:08.430Z,5.10
2017-10-19T14:52:14.679Z,4.67
2017-10-19T14:53:26.960Z,5.30
2017-10-19T14:54:33.961Z,4.60
2017-10-19T14:55:41.321Z,4.80
2017-10-19T14:56:51.065Z,4.70
2017-10-19T14:58:26.145Z,5.03
2017-10-19T16:23:06.164Z,7.70
2017-10-19T16:24:20.538Z,7.37
2017-10-19T16:25:36.353Z,7.00
2017-10-19T16:26:47.249Z,8.52
2017-10-19T16:28:02.668Z,8.10
2017-10-19T16:29:19.043Z,7.60
2017-10-19T16:30:33.307Z,7.53
2017-10-19T16:31:48.015Z,7.45
2017-10-19T16:32:57.183Z,8.18
2017-10-19T16:34:08.625Z,7.20
2017-10-19T16:35:17.325Z,7.75
2017-10-19T16:36:30.148Z,6.40
2017-10-19T16:37:52.189Z,7.20
2017-10-19T16:39:13.665Z,6.37
2017-10-19T16:40:23.593Z,7.55
2017-10-19T16:41:33.033Z,7.75
2017-10-19T16:44:02.466Z,7.72
2017-10-19T16:45:35.022Z,7.07
2017-10-19T16:46:41.341Z,7.68
2017-10-19T16:49:32.857Z,8.35
2017-10-19T16:50:41.422Z,8.30
2017-10-19T16:51:48.355Z,7.35
2017-10-19T16:52:58.208Z,7.47
2017-10-19T16:54:09.471Z,7.35
2017-10-19T16:55:20.062Z,7.32
2017-10-19T16:56:32.419Z,7.68
2017-10-19T16:57:47.954Z,7.30
2017-10-19T17:06:54.055Z,6.50
2017-10-19T17:08:09.905Z,7.30
2017-10-19T17:09:30.178Z,7.03
2017-10-19T17:12:39.168Z,7.70
2017-10-19T20:57:08.994Z,9.50
2017-10-19T20:58:15.440Z,9.95
2017-10-19T20:59:22.255Z,9.60
2017-10-19T21:00:28.475Z,9.10
2017-10-19T21:01:35.392Z,10.57
2017-10-19T21:02:43.545Z,9.30
2017-10-19T21:03:51.026Z,10.00
2017-10-19T21:04:57.941Z,9.85
2017-10-19T21:06:04.649Z,10.35
2017-10-19T21:07:12.578Z,9.60
2017-10-19T21:08:19.127Z,8.95
2017-10-19T21:09:25.614Z,9.27
2017-10-19T21:10:33.290Z,9.88
2017-10-19T21:11:40.828Z,9.90
2017-10-19T21:14:02.533Z,8.60
2017-10-19T21:15:10.283Z,9.60
2017-10-19T21:16:20.475Z,9.65
2017-10-19T21:17:29.134Z,9.77
2017-10-19T21:18:35.453Z,9.38
2017-10-19T21:19:43.021Z,9.50
2017-10-19T21:20:52.897Z,9.00
2017-10-19T21:22:00.219Z,9.18
2017-10-19T21:23:07.693Z,10.18
2017-10-19T21:24:15.707Z,10.18
2017-10-19T21:25:22.080Z,9.13
2017-10-19T21:26:30.129Z,9.82
2017-10-19T21:31:47.462Z,9.55
2017-10-19T21:32:53.868Z,8.77
2017-10-19T21:34:00.856Z,9.75
2017-10-19T21:38:32.500Z,9.65
2017-10-19T21:39:40.355Z,9.48
2017-10-19T21:40:46.760Z,10.80
2017-10-19T21:41:54.027Z,9.80
2017-10-19T21:43:01.753Z,8.82
2017-10-19T21:44:09.321Z,8.98
2017-10-19T21:45:16.593Z,10.00
2017-10-19T21:46:24.053Z,10.25
2017-10-19T21:47:30.590Z,10.65
2017-10-19T21:48:36.979Z,8.80
2017-10-19T21:49:44.424Z,10.40
2017-10-19T21:50:52.885Z,9.88
2017-10-19T21:51:59.901Z,9.57
2017-10-19T21:53:06.228Z,10.48
2017-10-19T21:54:13.054Z,9.50
2017-10-19T21:55:19.481Z,9.68
2017-10-19T21:56:27.319Z,9.90
2017-10-19T21:57:34.488Z,10.13
2017-10-19T21:58:41.878Z,9.48
2017-10-19T21:59:48.526Z,9.48
2017-10-19T22:00:54.409Z,9.50
2017-10-19T22:02:01.647Z,9.30
2017-10-19T22:03:07.653Z,8.65
2017-10-19T22:04:14.684Z,9.85
2017-10-19T22:05:21.790Z,10.00
2017-10-19T22:06:29.338Z,9.30
2017-10-19T22:07:36.673Z,9.57
2017-10-19T22:08:43.492Z,10.45
2017-10-19T22:09:49.798Z,10.05
2017-10-19T22:10:56.948Z,10.45
2017-10-19T22:12:03.891Z,10.70
2017-10-19T22:13:14.653Z,9.82
2017-10-19T22:14:21.815Z,9.43
2017-10-19T22:15:30.778Z,9.82
2017-10-19T22:16:40.099Z,9.88
2017-10-19T22:17:53.113Z,10.10
2017-10-19T22:19:01.478Z,10.52
2017-10-19T22:20:09.527Z,9.57
2017-10-19T22:21:19.576Z,10.05
2017-10-19T22:22:25.942Z,10.23
2017-10-19T22:23:32.250Z,10.13
2017-10-19T22:24:39.534Z,10.65
2017-10-19T22:26:57.440Z,10.05
2017-10-19T22:28:04.661Z,9.77
2017-10-19T22:29:12.712Z,9.63
2017-10-19T22:30:22.230Z,9.85
2017-10-19T22:31:29.738Z,9.07
2017-10-19T22:32:36.037Z,9.80
2017-10-19T22:33:43.388Z,9.55
2017-10-19T22:34:51.084Z,11.35
2017-10-19T22:35:58.240Z,10.15
2017-10-19T22:37:05.281Z,9.93
2017-10-19T22:38:15.389Z,10.68
2017-10-19T22:39:21.975Z,12.02
2017-10-19T22:40:29.846Z,11.15
2017-10-19T22:41:36.367Z,11.35
2017-10-19T22:42:42.696Z,9.80
2017-10-19T22:43:49.303Z,11.12
2017-10-19T22:44:55.815Z,10.38
2017-10-19T22:46:02.230Z,11.77
2017-10-19T22:47:08.560Z,11.75
2017-10-19T22:48:14.852Z,10.43
2017-10-19T22:49:21.479Z,10.52
2017-10-19T22:50:27.886Z,10.25
2017-10-19T22:51:34.096Z,11.07
2017-10-19T22:52:40.307Z,10.80
2017-10-19T22:53:47.551Z,11.00
2017-10-19T22:54:54.882Z,10.90
2017-10-19T22:56:02.105Z,11.52
2017-10-19T22:57:11.406Z,11.27
2017-10-19T22:58:18.412Z,11.45
2017-10-19T22:59:24.733Z,11.40
2017-10-19T23:00:31.478Z,11.07
2017-10-19T23:01:37.572Z,11.35
2017-10-19T23:02:46.102Z,11.05
2017-10-19T23:03:53.971Z,12.45
2017-10-19T23:05:01.316Z,11.48
2017-10-19T23:06:08.125Z,12.60
2017-10-19T23:07:14.653Z,12.80
2017-10-19T23:08:21.192Z,12.23
2017-10-19T23:09:28.494Z,12.57
2017-10-19T23:10:36.508Z,11.48
2017-10-19T23:11:44.901Z,11.80
2017-10-19T23:12:53.575Z,11.75
2017-10-19T23:13:59.983Z,11.55
2017-10-19T23:15:06.205Z,12.23
2017-10-19T23:17:54.973Z,11.37
2017-10-19T23:19:01.135Z,12.10
2017-10-19T23:20:07.315Z,11.30
2017-10-19T23:21:13.479Z,10.07
2017-10-19T23:22:19.454Z,11.93
2017-10-19T23:23:25.473Z,11.25
2017-10-19T23:24:31.649Z,11.07
2017-10-19T23:25:38.642Z,10.73
2017-10-19T23:26:44.897Z,10.55
2017-10-19T23:27:51.087Z,11.12
2017-10-19T23:28:57.248Z,11.25
2017-10-19T23:30:04.502Z,10.65
2017-10-19T23:31:11.317Z,10.05
2017-10-19T23:32:17.550Z,10.10
2017-10-19T23:33:23.896Z,11.40
2017-10-19T23:34:30.098Z,10.52
2017-10-19T23:35:36.403Z,11.52
2017-10-19T23:36:42.605Z,12.43
2017-10-19T23:37:48.766Z,10.63
2017-10-19T23:38:55.043Z,13.98
2017-10-19T23:40:01.271Z,10.98
2017-10-19T23:41:07.475Z,12.60
2017-10-19T23:42:13.570Z,10.63
2017-10-19T23:43:19.786Z,10.23
2017-10-19T23:44:26.385Z,11.82
2017-10-19T23:45:32.796Z,11.50
2017-10-19T23:46:39.833Z,12.35
2017-10-19T23:47:47.562Z,11.98
2017-10-19T23:48:54.581Z,10.70
2017-10-19T23:50:01.885Z,10.85
2017-10-19T23:51:08.551Z,11.45
2017-10-19T23:52:14.802Z,11.77
2017-10-19T23:53:21.105Z,11.45
2017-10-19T23:54:27.322Z,11.05
2017-10-19T23:55:33.519Z,12.07
2017-10-19T23:56:40.321Z,11.95
2017-10-19T23:57:46.526Z,11.00
2017-10-19T23:58:53.448Z,12.25
2017-10-19T23:59:59.835Z,11.50
